createdAt,value
2019-03-18T00:01:13.302Z,1.30
2019-03-18T00:03:42.091Z,1.07
2019-03-18T00:06:10.906Z,1.10
2019-03-18T00:08:40.014Z,2.17
2019-03-18T00:11:09.158Z,3.20
2019-03-18T00:13:38.227Z,1.90
2019-03-18T00:16:07.661Z,2.97
2019-03-18T00:18:36.719Z,1.67
2019-03-18T00:21:05.866Z,1.07
2019-03-18T00:23:35.135Z,2.13
2019-03-18T00:26:04.758Z,1.10
2019-03-18T00:28:33.807Z,2.17
2019-03-18T00:31:02.833Z,1.83
2019-03-18T00:33:32.120Z,0.87
2019-03-18T00:36:00.914Z,2.10
2019-03-18T00:38:29.925Z,1.63
2019-03-18T00:40:59.827Z,2.57
2019-03-18T00:43:28.610Z,4.07
2019-03-18T00:45:57.719Z,1.97
2019-03-18T00:48:27.028Z,1.30
2019-03-18T00:50:56.105Z,1.83
2019-03-18T00:53:25.151Z,1.73
2019-03-18T00:55:54.145Z,1.90
2019-03-18T00:58:23.182Z,2.93
2019-03-18T01:00:52.537Z,2.97
2019-03-18T01:03:21.884Z,2.60
2019-03-18T01:05:51.254Z,5.83
2019-03-18T01:08:20.145Z,3.60
2019-03-18T01:10:49.514Z,3.17
2019-03-18T01:13:18.569Z,4.63
2019-03-18T01:15:47.942Z,6.83
2019-03-18T01:18:16.762Z,3.60
2019-03-18T01:20:46.104Z,4.07
2019-03-18T01:23:15.671Z,3.20
2019-03-18T01:25:44.555Z,2.83
2019-03-18T01:28:14.037Z,2.93
2019-03-18T01:30:42.874Z,1.20
2019-03-18T01:33:12.670Z,1.70
2019-03-18T01:35:41.469Z,1.40
2019-03-18T01:38:10.595Z,0.63
2019-03-18T01:40:39.877Z,1.90
2019-03-18T01:43:09.023Z,1.07
2019-03-18T01:45:40.926Z,0.70
2019-03-18T01:48:08.910Z,2.03
2019-03-18T01:50:37.842Z,3.60
2019-03-18T01:53:07.165Z,2.77
2019-03-18T01:55:36.515Z,1.10
2019-03-18T01:58:05.402Z,2.93
2019-03-18T02:00:34.838Z,0.50
2019-03-18T02:03:03.625Z,1.03
2019-03-18T02:05:32.502Z,2.20
2019-03-18T02:08:01.297Z,1.63
2019-03-18T02:10:30.386Z,2.13
2019-03-18T02:12:59.439Z,1.60
2019-03-18T02:15:29.069Z,2.57
2019-03-18T02:17:58.114Z,2.77
2019-03-18T02:20:27.190Z,1.60
2019-03-18T02:22:56.964Z,1.20
2019-03-18T02:25:25.779Z,1.23
2019-03-18T02:27:55.068Z,1.93
2019-03-18T02:30:23.928Z,1.13
2019-03-18T02:32:52.991Z,0.50
2019-03-18T02:35:21.880Z,0.97
2019-03-18T02:37:51.464Z,0.97
2019-03-18T02:40:21.011Z,0.87
2019-03-18T02:42:50.667Z,1.50
2019-03-18T02:45:19.736Z,1.43
2019-03-18T02:47:48.775Z,1.97
2019-03-18T02:50:17.800Z,1.60
2019-03-18T02:52:47.091Z,0.67
2019-03-18T02:55:16.130Z,0.73
2019-03-18T02:57:45.161Z,0.30
2019-03-18T03:00:14.099Z,1.47
2019-03-18T03:02:43.284Z,4.03
2019-03-18T03:05:12.475Z,2.47
2019-03-18T03:07:41.740Z,1.23
2019-03-18T03:10:10.877Z,1.43
2019-03-18T03:12:39.980Z,1.23
2019-03-18T03:15:09.156Z,1.77
2019-03-18T03:17:38.220Z,1.17
2019-03-18T03:20:07.927Z,1.53
2019-03-18T03:22:37.049Z,2.40
2019-03-18T03:25:06.389Z,1.03
2019-03-18T03:27:35.652Z,1.13
2019-03-18T03:30:04.969Z,1.10
2019-03-18T03:32:33.951Z,1.60
2019-03-18T03:35:02.783Z,1.10
2019-03-18T03:37:32.114Z,1.90
2019-03-18T03:40:00.912Z,2.93
2019-03-18T03:42:29.946Z,1.67
2019-03-18T03:44:58.870Z,1.33
2019-03-18T03:47:27.876Z,1.00
2019-03-18T03:49:57.147Z,2.00
2019-03-18T03:52:26.470Z,0.67
2019-03-18T03:54:55.681Z,0.50
2019-03-18T03:57:24.765Z,0.70
2019-03-18T03:59:53.833Z,0.83
2019-03-18T04:02:22.710Z,1.03
2019-03-18T04:04:52.111Z,3.10
2019-03-18T04:07:21.762Z,2.47
2019-03-18T04:09:50.942Z,1.13
2019-03-18T04:12:20.016Z,1.80
2019-03-18T04:14:49.081Z,0.90
2019-03-18T04:17:18.108Z,1.60
2019-03-18T04:19:47.738Z,0.77
2019-03-18T04:22:17.158Z,1.43
2019-03-18T04:24:46.350Z,2.20
2019-03-18T04:27:15.656Z,2.57
2019-03-18T04:29:45.035Z,2.10
2019-03-18T04:32:13.842Z,1.80
2019-03-18T04:34:42.634Z,0.97
2019-03-18T04:37:11.486Z,4.03
2019-03-18T04:39:40.769Z,3.70
2019-03-18T04:42:09.704Z,1.30
2019-03-18T04:44:39.227Z,0.83
2019-03-18T04:47:14.317Z,1.70
2019-03-18T04:49:39.812Z,4.77
2019-03-18T04:52:08.841Z,0.97
2019-03-18T04:54:38.197Z,2.87
2019-03-18T04:57:07.209Z,1.43
2019-03-18T04:59:36.497Z,1.10
2019-03-18T05:02:05.294Z,0.73
2019-03-18T05:04:34.095Z,2.13
2019-03-18T05:07:03.465Z,0.63
2019-03-18T05:09:32.729Z,0.43
2019-03-18T05:12:01.773Z,0.50
2019-03-18T05:14:30.824Z,0.53
2019-03-18T05:17:00.081Z,2.47
2019-03-18T05:19:29.943Z,1.23
2019-03-18T05:21:59.054Z,0.73
2019-03-18T05:24:28.826Z,1.57
2019-03-18T05:26:57.858Z,0.80
2019-03-18T05:29:26.882Z,0.77
2019-03-18T05:31:56.398Z,2.73
2019-03-18T05:34:25.448Z,3.17
2019-03-18T05:36:54.229Z,1.03
2019-03-18T05:39:23.015Z,1.30
2019-03-18T05:41:52.290Z,1.17
2019-03-18T05:44:21.883Z,0.83
2019-03-18T05:46:50.670Z,0.87
2019-03-18T05:49:20.202Z,1.13
2019-03-18T05:51:49.010Z,1.23
2019-03-18T05:54:18.054Z,1.07
2019-03-18T05:56:47.334Z,1.87
2019-03-18T05:59:16.870Z,1.03
2019-03-18T06:01:46.400Z,1.53
2019-03-18T06:04:15.757Z,5.07
2019-03-18T06:06:45.052Z,2.57
2019-03-18T06:09:14.073Z,1.50
2019-03-18T06:11:43.098Z,0.77
2019-03-18T06:14:11.897Z,1.47
2019-03-18T06:16:41.450Z,2.00
2019-03-18T06:19:10.549Z,0.77
2019-03-18T06:21:39.589Z,1.17
2019-03-18T06:24:08.886Z,1.73
2019-03-18T06:26:37.930Z,0.60
2019-03-18T06:29:07.045Z,2.47
2019-03-18T06:31:36.334Z,1.50
2019-03-18T06:34:05.437Z,0.93
2019-03-18T06:36:34.245Z,0.73
2019-03-18T06:39:04.439Z,1.57
2019-03-18T06:41:33.737Z,2.10
2019-03-18T06:44:03.281Z,1.30
2019-03-18T06:46:32.632Z,1.50
2019-03-18T06:49:01.662Z,3.53
2019-03-18T06:51:30.467Z,2.30
2019-03-18T06:53:59.814Z,1.77
2019-03-18T06:56:29.198Z,6.60
2019-03-18T06:58:58.318Z,9.67
2019-03-18T07:01:27.662Z,14.20
2019-03-18T07:03:56.777Z,11.80
2019-03-18T07:06:25.846Z,9.07
2019-03-18T07:08:55.145Z,4.53
2019-03-18T07:11:24.527Z,1.90
2019-03-18T07:13:54.055Z,5.47
2019-03-18T07:16:23.171Z,6.43
2019-03-18T07:18:52.208Z,9.10
2019-03-18T07:21:21.246Z,6.63
2019-03-18T07:23:50.535Z,11.33
2019-03-18T07:26:19.833Z,6.10
2019-03-18T07:28:48.866Z,5.83
2019-03-18T07:31:17.896Z,9.57
2019-03-18T07:33:46.921Z,35.07
2019-03-18T07:36:16.218Z,12.43
2019-03-18T07:38:45.238Z,4.43
2019-03-18T07:41:14.048Z,12.47
2019-03-18T07:43:43.579Z,7.83
2019-03-18T07:46:12.626Z,4.20
2019-03-18T07:48:41.664Z,5.33
2019-03-18T07:51:10.791Z,5.97
2019-03-18T07:53:39.814Z,4.50
2019-03-18T07:56:08.846Z,2.30
2019-03-18T07:58:37.874Z,1.43
2019-03-18T08:01:07.002Z,3.10
2019-03-18T08:03:36.701Z,3.67
2019-03-18T08:06:05.657Z,33.43
2019-03-18T08:08:34.752Z,13.73
2019-03-18T08:11:04.102Z,2.97
2019-03-18T08:13:33.397Z,10.33
2019-03-18T08:16:02.463Z,3.47
2019-03-18T08:18:42.715Z,3.57
2019-03-18T08:21:02.021Z,6.87
2019-03-18T08:23:30.811Z,6.03
2019-03-18T08:25:59.846Z,5.43
2019-03-18T08:28:29.121Z,1.87
2019-03-18T08:30:58.668Z,3.80
2019-03-18T08:33:27.962Z,3.13
2019-03-18T08:35:57.530Z,2.37
2019-03-18T08:38:26.326Z,4.70
2019-03-18T08:40:55.679Z,19.00
2019-03-18T08:43:24.805Z,2.13
2019-03-18T08:45:53.839Z,7.27
2019-03-18T08:48:22.888Z,3.10
2019-03-18T08:50:51.670Z,3.23
2019-03-18T08:53:20.702Z,1.73
2019-03-18T08:55:50.239Z,1.90
2019-03-18T08:58:19.051Z,3.33
2019-03-18T09:00:47.998Z,5.07
2019-03-18T09:03:17.043Z,3.93
2019-03-18T09:05:45.837Z,1.87
2019-03-18T09:08:15.227Z,6.50
2019-03-18T09:10:44.023Z,11.23
2019-03-18T09:13:13.076Z,17.73
2019-03-18T09:15:42.871Z,14.40
2019-03-18T09:18:12.395Z,8.97
2019-03-18T09:20:41.183Z,8.83
2019-03-18T09:23:10.482Z,9.17
2019-03-18T09:25:39.523Z,8.80
2019-03-18T09:28:08.568Z,5.63
2019-03-18T09:30:37.603Z,5.80
2019-03-18T09:33:06.789Z,9.70
2019-03-18T09:35:36.426Z,6.90
2019-03-18T09:38:05.771Z,10.47
2019-03-18T09:40:35.118Z,13.27
2019-03-18T09:43:04.385Z,18.20
2019-03-18T09:45:33.806Z,11.40
2019-03-18T09:48:02.875Z,1.27
2019-03-18T09:50:31.922Z,4.40
2019-03-18T09:53:01.042Z,3.00
2019-03-18T09:55:29.835Z,1.03
2019-03-18T09:57:58.963Z,3.73
2019-03-18T10:00:28.000Z,3.40
2019-03-18T10:02:56.886Z,0.93
2019-03-18T10:05:25.674Z,9.87
2019-03-18T10:07:54.994Z,9.10
2019-03-18T10:10:24.046Z,15.73
2019-03-18T10:12:53.099Z,13.30
2019-03-18T10:15:22.227Z,18.90
2019-03-18T10:17:51.581Z,25.70
2019-03-18T10:20:20.715Z,7.07
2019-03-18T10:22:49.762Z,10.33
2019-03-18T10:25:19.043Z,6.80
2019-03-18T10:27:48.073Z,4.30
2019-03-18T10:30:17.281Z,1.83
2019-03-18T10:32:46.319Z,7.00
2019-03-18T10:35:15.194Z,2.97
2019-03-18T10:37:44.321Z,1.30
2019-03-18T10:40:13.707Z,1.17
2019-03-18T10:42:42.621Z,1.20
2019-03-18T10:45:11.778Z,3.70
2019-03-18T10:47:41.067Z,1.47
2019-03-18T10:50:10.250Z,2.07
2019-03-18T10:52:39.309Z,2.17
2019-03-18T10:55:08.981Z,1.73
2019-03-18T10:57:38.370Z,2.13
2019-03-18T11:00:09.524Z,0.70
2019-03-18T11:02:38.330Z,3.90
2019-03-18T11:05:08.265Z,0.87
2019-03-18T11:07:37.522Z,0.80
2019-03-18T11:10:07.210Z,1.77
2019-03-18T11:12:36.276Z,1.40
2019-03-18T11:15:05.838Z,3.83
2019-03-18T11:17:35.138Z,2.37
2019-03-18T11:20:04.826Z,1.27
2019-03-18T11:22:33.615Z,0.80
2019-03-18T11:25:03.395Z,0.70
2019-03-18T11:27:32.439Z,1.57
2019-03-18T11:30:02.003Z,7.70
2019-03-18T11:32:31.290Z,1.70
2019-03-18T11:35:00.085Z,2.07
2019-03-18T11:37:28.872Z,0.83
2019-03-18T11:39:57.914Z,0.77
2019-03-18T11:42:26.709Z,0.70
2019-03-18T11:44:55.518Z,0.87
2019-03-18T11:47:24.949Z,2.83
2019-03-18T11:49:53.995Z,1.70
2019-03-18T11:52:23.347Z,1.40
2019-03-18T11:54:52.137Z,1.93
2019-03-18T11:57:21.082Z,9.13
2019-03-18T11:59:49.889Z,11.40
2019-03-18T12:02:27.564Z,2.10
2019-03-18T12:04:49.518Z,1.30
2019-03-18T12:07:18.609Z,2.20
2019-03-18T12:09:47.414Z,1.60
2019-03-18T12:12:16.699Z,2.27
2019-03-18T12:14:46.251Z,2.00
2019-03-18T12:17:15.276Z,2.93
2019-03-18T12:19:44.331Z,2.73
2019-03-18T12:22:13.954Z,2.07
2019-03-18T12:24:43.315Z,3.80
2019-03-18T12:27:12.093Z,3.03
2019-03-18T12:29:40.892Z,0.93
2019-03-18T12:32:10.004Z,0.90
2019-03-18T12:34:39.309Z,2.50
2019-03-18T12:37:08.184Z,2.63
2019-03-18T12:39:37.542Z,0.80
2019-03-18T12:42:06.727Z,2.57
2019-03-18T12:44:35.777Z,2.00
2019-03-18T12:47:04.893Z,1.83
2019-03-18T12:49:33.762Z,1.93
2019-03-18T12:52:03.271Z,2.73
2019-03-18T12:54:32.431Z,2.57
2019-03-18T12:57:01.772Z,2.23
2019-03-18T12:59:30.828Z,2.80
2019-03-18T13:01:59.881Z,1.23
2019-03-18T13:04:29.407Z,2.67
2019-03-18T13:06:59.115Z,2.40
2019-03-18T13:09:28.126Z,4.47
2019-03-18T13:11:57.450Z,3.20
2019-03-18T13:14:26.825Z,2.53
2019-03-18T13:16:56.123Z,2.53
2019-03-18T13:19:25.472Z,2.47
2019-03-18T13:21:54.361Z,1.20
2019-03-18T13:24:23.389Z,1.97
2019-03-18T13:26:52.178Z,0.97
2019-03-18T13:29:21.794Z,3.13
2019-03-18T13:31:50.823Z,3.50
2019-03-18T13:34:19.846Z,2.53
2019-03-18T13:36:48.680Z,27.20
2019-03-18T13:39:17.807Z,3.20
2019-03-18T13:41:46.624Z,1.77
2019-03-18T13:44:15.682Z,1.63
2019-03-18T13:46:45.225Z,2.70
2019-03-18T13:49:15.952Z,3.27
2019-03-18T13:51:45.644Z,2.37
2019-03-18T13:54:14.426Z,7.00
2019-03-18T13:56:43.734Z,3.43
2019-03-18T13:59:12.807Z,4.57
2019-03-18T14:01:41.929Z,1.97
2019-03-18T14:04:10.965Z,4.53
2019-03-18T14:06:40.084Z,19.83
2019-03-18T14:09:09.294Z,11.77
2019-03-18T14:11:38.181Z,9.73
2019-03-18T14:14:07.229Z,6.63
2019-03-18T14:16:36.115Z,6.43
2019-03-18T14:19:05.514Z,2.97
2019-03-18T14:21:35.031Z,7.77
2019-03-18T14:24:04.253Z,3.77
2019-03-18T14:26:33.566Z,5.40
2019-03-18T14:29:03.098Z,6.07
2019-03-18T14:31:32.145Z,1.70
2019-03-18T14:34:01.419Z,0.40
2019-03-18T14:36:30.227Z,0.88
2019-03-18T14:38:59.273Z,0.87
2019-03-18T14:41:28.330Z,1.63
2019-03-18T14:43:57.682Z,0.90
2019-03-18T14:46:26.737Z,0.60
2019-03-18T14:48:56.146Z,4.47
2019-03-18T14:51:25.375Z,1.23
2019-03-18T14:53:54.759Z,1.50
2019-03-18T14:56:23.590Z,4.60
2019-03-18T14:58:52.646Z,9.10
2019-03-18T15:01:21.966Z,6.40
2019-03-18T15:03:51.055Z,7.27
2019-03-18T15:06:20.182Z,5.03
2019-03-18T15:08:49.525Z,6.83
2019-03-18T15:11:18.892Z,2.20
2019-03-18T15:13:47.945Z,2.83
2019-03-18T15:16:16.998Z,2.43
2019-03-18T15:18:46.136Z,3.60
2019-03-18T15:21:15.007Z,2.13
2019-03-18T15:23:44.063Z,0.93
2019-03-18T15:26:13.175Z,1.97
2019-03-18T15:28:42.543Z,2.97
2019-03-18T15:31:11.368Z,0.90
2019-03-18T15:33:40.671Z,0.90
2019-03-18T15:36:09.459Z,1.40
2019-03-18T15:38:38.779Z,1.30
2019-03-18T15:41:07.826Z,1.80
2019-03-18T15:43:36.881Z,2.97
2019-03-18T15:46:06.150Z,41.40
2019-03-18T15:48:35.221Z,5.53
2019-03-18T15:51:04.261Z,5.07
2019-03-18T15:53:37.027Z,7.60
2019-03-18T15:56:05.886Z,7.83
2019-03-18T15:58:34.951Z,11.00
2019-03-18T16:01:03.999Z,14.77
2019-03-18T16:03:33.350Z,5.57
2019-03-18T16:06:02.252Z,1.50
2019-03-18T16:08:31.311Z,2.13
2019-03-18T16:11:00.599Z,8.73
2019-03-18T16:13:29.893Z,7.57
2019-03-18T16:15:59.030Z,7.07
2019-03-18T16:18:28.146Z,12.70
2019-03-18T16:20:57.270Z,6.00
2019-03-18T16:23:26.340Z,30.43
2019-03-18T16:25:55.131Z,6.27
2019-03-18T16:28:24.182Z,20.33
2019-03-18T16:30:53.042Z,12.93
2019-03-18T16:33:22.091Z,4.53
2019-03-18T16:35:51.673Z,5.93
2019-03-18T16:38:21.623Z,20.77
2019-03-18T16:40:50.508Z,6.07
2019-03-18T16:43:19.604Z,14.63
2019-03-18T16:45:48.928Z,8.47
2019-03-18T16:48:17.969Z,8.23
2019-03-18T16:50:47.265Z,8.90
2019-03-18T16:53:16.580Z,5.93
2019-03-18T16:55:45.941Z,4.13
2019-03-18T16:58:14.995Z,6.47
2019-03-18T17:00:44.365Z,5.30
2019-03-18T17:03:13.935Z,4.33
2019-03-18T17:05:43.286Z,2.63
2019-03-18T17:08:12.575Z,2.90
2019-03-18T17:10:41.378Z,3.13
2019-03-18T17:13:10.432Z,2.17
2019-03-18T17:15:39.726Z,1.70
2019-03-18T17:18:09.166Z,1.70
2019-03-18T17:20:38.493Z,1.80
2019-03-18T17:23:07.721Z,2.83
2019-03-18T17:25:36.766Z,4.40
2019-03-18T17:28:05.912Z,3.23
2019-03-18T17:30:34.781Z,1.83
2019-03-18T17:33:03.887Z,2.00
2019-03-18T17:35:32.785Z,53.07
2019-03-18T17:38:02.133Z,9.27
2019-03-18T17:40:31.458Z,2.57
2019-03-18T17:43:00.673Z,2.43
2019-03-18T17:45:29.701Z,1.57
2019-03-18T17:47:58.770Z,3.87
2019-03-18T17:50:27.915Z,4.37
2019-03-18T17:53:03.190Z,4.97
2019-03-18T17:55:28.379Z,2.57
2019-03-18T17:57:57.658Z,2.77
2019-03-18T18:00:42.340Z,5.50
2019-03-18T18:03:11.955Z,4.70
2019-03-18T18:05:40.841Z,5.33
2019-03-18T18:08:09.811Z,6.33
2019-03-18T18:10:38.619Z,5.60
2019-03-18T18:13:07.711Z,7.50
2019-03-18T18:15:36.766Z,6.03
2019-03-18T18:18:05.717Z,4.57
2019-03-18T18:20:37.526Z,6.33
2019-03-18T18:23:14.414Z,7.83
2019-03-18T18:25:37.007Z,12.17
2019-03-18T18:28:06.290Z,9.93
2019-03-18T18:30:35.427Z,7.60
2019-03-18T18:33:04.406Z,11.57
2019-03-18T18:35:33.463Z,12.73
2019-03-18T18:38:02.881Z,12.47
2019-03-18T18:40:32.499Z,10.83
2019-03-18T18:43:01.648Z,13.70
2019-03-18T18:45:31.057Z,13.83
2019-03-18T18:48:00.292Z,13.53
2019-03-18T18:50:29.108Z,17.00
2019-03-18T18:52:58.634Z,10.13
2019-03-18T18:55:28.167Z,9.30
2019-03-18T18:57:57.314Z,6.60
2019-03-18T19:00:26.470Z,6.47
2019-03-18T19:02:55.266Z,6.93
2019-03-18T19:05:24.610Z,7.40
2019-03-18T19:07:54.204Z,13.57
2019-03-18T19:10:23.047Z,20.20
2019-03-18T19:12:52.318Z,14.17
2019-03-18T19:15:21.738Z,6.90
2019-03-18T19:17:50.943Z,6.33
2019-03-18T19:20:20.353Z,20.90
2019-03-18T19:22:49.567Z,8.47
2019-03-18T19:25:18.538Z,7.50
2019-03-18T19:27:47.930Z,6.77
2019-03-18T19:30:18.018Z,6.87
2019-03-18T19:32:47.714Z,8.67
2019-03-18T19:35:16.672Z,9.50
2019-03-18T19:37:45.862Z,9.57
2019-03-18T19:40:14.869Z,8.37
2019-03-18T19:42:43.946Z,9.57
2019-03-18T19:45:13.427Z,9.97
2019-03-18T19:47:42.869Z,7.63
2019-03-18T19:50:13.945Z,6.77
2019-03-18T19:52:42.790Z,6.17
2019-03-18T19:55:11.744Z,6.53
2019-03-18T19:57:40.556Z,7.27
2019-03-18T20:00:12.131Z,7.40
2019-03-18T20:02:40.992Z,6.43
2019-03-18T20:05:14.934Z,5.70
2019-03-18T20:07:41.199Z,5.47
2019-03-18T20:10:11.350Z,5.47
2019-03-18T20:12:40.461Z,6.80
2019-03-18T20:15:10.893Z,6.70
2019-03-18T20:17:40.448Z,7.43
2019-03-18T20:20:11.037Z,5.27
2019-03-18T20:22:40.068Z,4.87
2019-03-18T20:25:09.311Z,4.87
2019-03-18T20:27:38.250Z,4.57
2019-03-18T20:30:09.185Z,6.40
2019-03-18T20:32:38.220Z,8.80
2019-03-18T20:35:08.563Z,7.63
2019-03-18T20:37:37.748Z,9.63
2019-03-18T20:40:07.545Z,8.30
2019-03-18T20:42:36.591Z,8.80
2019-03-18T20:45:06.515Z,10.33
2019-03-18T20:47:35.903Z,11.40
2019-03-18T20:50:06.044Z,10.53
2019-03-18T20:52:35.390Z,9.20
2019-03-18T20:55:04.750Z,7.87
2019-03-18T20:57:33.861Z,10.17
2019-03-18T21:00:02.940Z,13.63
2019-03-18T21:02:32.207Z,13.87
2019-03-18T21:05:01.302Z,18.30
2019-03-18T21:07:30.168Z,20.77
2019-03-18T21:09:59.470Z,19.10
2019-03-18T21:12:28.514Z,22.27
2019-03-18T21:14:57.637Z,21.80
2019-03-18T21:17:26.450Z,19.53
2019-03-18T21:19:55.254Z,19.50
2019-03-18T21:22:24.321Z,16.23
2019-03-18T21:24:53.613Z,18.30
2019-03-18T21:27:22.660Z,18.53
2019-03-18T21:29:51.941Z,19.70
2019-03-18T21:32:21.234Z,16.37
2019-03-18T21:34:50.515Z,16.97
2019-03-18T21:37:19.814Z,16.97
2019-03-18T21:39:48.854Z,14.40
2019-03-18T21:42:18.137Z,15.17
2019-03-18T21:44:47.336Z,11.87
2019-03-18T21:47:16.436Z,11.40
2019-03-18T21:49:45.537Z,9.20
2019-03-18T21:52:16.685Z,11.47
2019-03-18T21:54:45.650Z,12.03
2019-03-18T21:57:14.769Z,15.10
2019-03-18T21:59:43.557Z,20.13
2019-03-18T22:02:12.516Z,13.10
2019-03-18T22:04:41.626Z,13.37
2019-03-18T22:07:10.927Z,12.63
2019-03-18T22:09:40.035Z,9.60
2019-03-18T22:12:09.325Z,7.77
2019-03-18T22:14:38.382Z,7.70
2019-03-18T22:17:07.174Z,7.57
2019-03-18T22:19:36.495Z,11.70
2019-03-18T22:22:05.690Z,13.47
2019-03-18T22:24:44.921Z,13.77
2019-03-18T22:27:06.053Z,31.03
2019-03-18T22:29:35.647Z,26.60
2019-03-18T22:32:04.631Z,29.93
2019-03-18T22:34:33.574Z,33.23
2019-03-18T22:37:02.674Z,32.00
2019-03-18T22:39:31.967Z,14.57
2019-03-18T22:42:01.238Z,10.70
2019-03-18T22:44:30.285Z,16.00
2019-03-18T22:46:59.790Z,18.60
2019-03-18T22:49:29.086Z,27.87
2019-03-18T22:51:57.873Z,32.13
2019-03-18T22:54:27.187Z,40.47
2019-03-18T22:56:56.301Z,20.67
2019-03-18T22:59:25.914Z,5.77
2019-03-18T23:01:54.855Z,6.73
2019-03-18T23:04:23.986Z,4.33
2019-03-18T23:06:53.522Z,4.27
2019-03-18T23:09:23.210Z,4.97
2019-03-18T23:11:52.247Z,5.37
2019-03-18T23:14:21.086Z,5.53
2019-03-18T23:16:50.362Z,6.40
2019-03-18T23:19:21.018Z,8.00
2019-03-18T23:21:50.449Z,5.83
2019-03-18T23:24:19.818Z,7.77
2019-03-18T23:26:48.932Z,5.27
2019-03-18T23:29:18.214Z,7.37
2019-03-18T23:31:47.334Z,6.10
2019-03-18T23:34:16.418Z,6.73
2019-03-18T23:36:45.699Z,5.97
2019-03-18T23:39:14.978Z,5.10
2019-03-18T23:41:43.815Z,6.70
2019-03-18T23:44:12.879Z,6.93
2019-03-18T23:46:41.687Z,7.60
2019-03-18T23:49:11.013Z,8.30
2019-03-18T23:51:40.284Z,7.10
2019-03-18T23:54:09.583Z,5.63
2019-03-18T23:56:38.620Z,8.20
2019-03-18T23:59:08.165Z,10.27
